createdAt,value
2022-08-17T00:00:00.349Z,17.64
2022-08-17T00:01:00.614Z,17.63
2022-08-17T00:02:01.472Z,17.62
2022-08-17T00:03:00.792Z,17.6
2022-08-17T00:04:00.947Z,17.58
2022-08-17T00:05:01.101Z,17.52
2022-08-17T00:06:01.237Z,17.49
2022-08-17T00:07:00.416Z,17.44
2022-08-17T00:08:00.577Z,17.38
2022-08-17T00:09:00.722Z,17.35
2022-08-17T00:10:00.857Z,17.31
2022-08-17T00:11:01.005Z,17.3
2022-08-17T00:12:42.054Z,17.3
2022-08-17T00:13:00.352Z,17.29
2022-08-17T00:14:00.468Z,17.28
2022-08-17T00:15:00.633Z,17.25
2022-08-17T00:16:00.787Z,17.24
2022-08-17T00:17:00.938Z,17.25
2022-08-17T00:18:01.106Z,17.25
2022-08-17T00:19:08.440Z,17.25
2022-08-17T00:20:00.400Z,17.26
2022-08-17T00:21:00.541Z,17.26
2022-08-17T00:22:32.989Z,17.24
2022-08-17T00:23:00.866Z,17.24
2022-08-17T00:24:00.997Z,17.23
2022-08-17T00:25:01.226Z,17.2
2022-08-17T00:26:00.308Z,17.21
2022-08-17T00:27:00.446Z,17.23
2022-08-17T00:28:00.628Z,17.23
2022-08-17T00:29:00.754Z,17.21
2022-08-17T00:30:00.902Z,17.18
2022-08-17T00:31:01.049Z,17.18
2022-08-17T00:32:01.204Z,17.17
2022-08-17T00:33:14.542Z,17.17
2022-08-17T00:34:00.513Z,17.17
2022-08-17T00:35:00.667Z,17.17
2022-08-17T00:36:00.800Z,17.17
2022-08-17T00:37:00.955Z,17.17
2022-08-17T00:38:01.132Z,17.17
2022-08-17T00:39:01.257Z,17.17
2022-08-17T00:40:00.506Z,17.17
2022-08-17T00:41:00.557Z,17.17
2022-08-17T00:42:00.718Z,17.17
2022-08-17T00:43:00.896Z,17.17
2022-08-17T00:44:01.033Z,17.16
2022-08-17T00:45:01.178Z,17.16
2022-08-17T00:46:00.331Z,17.15
2022-08-17T00:47:00.500Z,17.14
2022-08-17T00:48:00.637Z,17.13
2022-08-17T00:49:00.768Z,17.11
2022-08-17T00:50:00.922Z,17.1
2022-08-17T00:51:01.068Z,17.1
2022-08-17T00:52:01.244Z,17.08
2022-08-17T00:53:00.378Z,17.07
2022-08-17T00:54:00.510Z,17.05
2022-08-17T00:55:00.659Z,17.04
2022-08-17T00:56:00.812Z,17.02
2022-08-17T00:57:00.987Z,16.99
2022-08-17T00:58:01.155Z,16.95
2022-08-17T00:59:00.308Z,16.93
2022-08-17T01:00:03.309Z,16.9
2022-08-17T01:01:00.666Z,16.87
2022-08-17T01:02:00.735Z,16.87
2022-08-17T01:03:00.906Z,16.85
2022-08-17T01:04:01.076Z,16.85
2022-08-17T01:05:01.199Z,16.85
2022-08-17T01:06:00.349Z,16.84
2022-08-17T01:07:00.496Z,16.84
2022-08-17T01:08:00.643Z,16.82
2022-08-17T01:09:00.825Z,16.81
2022-08-17T01:10:00.944Z,16.81
2022-08-17T01:11:01.977Z,16.81
2022-08-17T01:12:01.257Z,16.8
2022-08-17T01:13:00.410Z,16.81
2022-08-17T01:14:00.590Z,16.82
2022-08-17T01:15:00.712Z,16.82
2022-08-17T01:16:00.872Z,16.81
2022-08-17T01:17:01.033Z,16.78
2022-08-17T01:18:01.181Z,16.75
2022-08-17T01:19:00.348Z,16.71
2022-08-17T01:20:00.476Z,16.66
2022-08-17T01:21:00.626Z,16.62
2022-08-17T01:22:00.769Z,16.56
2022-08-17T01:23:00.921Z,16.54
2022-08-17T01:24:01.094Z,16.51
2022-08-17T01:25:01.228Z,16.5
2022-08-17T01:26:00.376Z,16.5
2022-08-17T01:27:00.531Z,16.52
2022-08-17T01:28:00.674Z,16.54
2022-08-17T01:29:00.861Z,16.52
2022-08-17T01:30:00.976Z,16.52
2022-08-17T01:31:01.145Z,16.5
2022-08-17T01:32:00.279Z,16.49
2022-08-17T01:33:00.431Z,16.49
2022-08-17T01:34:00.656Z,16.49
2022-08-17T01:35:00.746Z,16.5
2022-08-17T01:36:00.888Z,16.49
2022-08-17T01:37:01.037Z,16.47
2022-08-17T01:38:01.183Z,16.44
2022-08-17T01:39:00.363Z,16.44
2022-08-17T01:40:00.611Z,16.44
2022-08-17T01:41:00.641Z,16.41
2022-08-17T01:42:00.793Z,16.42
2022-08-17T01:43:00.945Z,16.42
2022-08-17T01:44:01.083Z,16.43
2022-08-17T01:45:01.242Z,16.43
2022-08-17T01:46:03.132Z,16.41
2022-08-17T01:47:00.529Z,16.39
2022-08-17T01:48:00.684Z,16.36
2022-08-17T01:49:00.834Z,16.35
2022-08-17T01:50:01.003Z,16.33
2022-08-17T01:51:01.148Z,16.33
2022-08-17T01:52:00.308Z,16.32
2022-08-17T01:53:00.443Z,16.32
2022-08-17T01:54:00.586Z,16.32
2022-08-17T01:55:00.731Z,16.32
2022-08-17T01:56:00.897Z,16.32
2022-08-17T01:57:01.063Z,16.3
2022-08-17T01:58:01.330Z,16.28
2022-08-17T01:59:00.354Z,16.26
2022-08-17T02:00:00.492Z,16.21
2022-08-17T02:01:01.643Z,16.22
2022-08-17T02:02:00.838Z,16.25
2022-08-17T02:03:00.951Z,16.24
2022-08-17T02:04:01.850Z,16.21
2022-08-17T02:05:01.252Z,16.2
2022-08-17T02:06:00.409Z,16.19
2022-08-17T02:07:00.591Z,16.2
2022-08-17T02:08:00.953Z,16.21
2022-08-17T02:09:02.689Z,16.2
2022-08-17T02:10:00.992Z,16.2
2022-08-17T02:11:01.138Z,16.17
2022-08-17T02:12:00.319Z,16.16
2022-08-17T02:13:00.440Z,16.12
2022-08-17T02:14:03.220Z,16.1
2022-08-17T02:15:00.757Z,16.08
2022-08-17T02:16:00.900Z,16.07
2022-08-17T02:17:01.064Z,16.07
2022-08-17T02:18:01.229Z,16.06
2022-08-17T02:19:00.342Z,16.06
2022-08-17T02:20:00.498Z,16.08
2022-08-17T02:21:00.656Z,16.07
2022-08-17T02:22:00.801Z,16.06
2022-08-17T02:23:00.995Z,16.04
2022-08-17T02:24:01.118Z,16
2022-08-17T02:25:02.183Z,15.99
2022-08-17T02:26:00.421Z,15.99
2022-08-17T02:27:00.568Z,16
2022-08-17T02:28:00.754Z,16
2022-08-17T02:29:00.888Z,15.99
2022-08-17T02:30:01.034Z,15.98
2022-08-17T02:31:03.258Z,15.97
2022-08-17T02:32:00.345Z,15.96
2022-08-17T02:33:00.524Z,15.92
2022-08-17T02:34:04.516Z,15.9
2022-08-17T02:35:00.805Z,15.89
2022-08-17T02:36:00.954Z,15.87
2022-08-17T02:37:01.087Z,15.83
2022-08-17T02:38:01.286Z,15.83
2022-08-17T02:39:00.394Z,15.81
2022-08-17T02:40:00.596Z,15.81
2022-08-17T02:41:00.706Z,15.82
2022-08-17T02:42:00.855Z,15.82
2022-08-17T02:43:01.021Z,15.81
2022-08-17T02:44:01.177Z,15.8
2022-08-17T02:45:00.300Z,15.78
2022-08-17T02:46:00.465Z,15.76
2022-08-17T02:47:00.624Z,15.76
2022-08-17T02:48:00.783Z,15.76
2022-08-17T02:49:00.925Z,15.76
2022-08-17T02:50:01.099Z,15.75
2022-08-17T02:51:01.228Z,15.72
2022-08-17T02:52:00.390Z,15.71
2022-08-17T02:53:02.280Z,15.7
2022-08-17T02:54:39.226Z,15.68
2022-08-17T02:55:00.882Z,15.68
2022-08-17T02:56:00.992Z,15.67
2022-08-17T02:57:01.141Z,15.65
2022-08-17T02:58:00.308Z,15.63
2022-08-17T02:59:00.453Z,15.65
2022-08-17T03:00:00.622Z,15.63
2022-08-17T03:01:00.743Z,15.62
2022-08-17T03:02:00.981Z,15.62
2022-08-17T03:03:01.042Z,15.62
2022-08-17T03:04:01.200Z,15.63
2022-08-17T03:05:00.379Z,15.65
2022-08-17T03:06:00.505Z,15.63
2022-08-17T03:07:00.649Z,15.62
2022-08-17T03:08:00.797Z,15.61
2022-08-17T03:09:00.954Z,15.59
2022-08-17T03:10:01.118Z,15.6
2022-08-17T03:11:01.261Z,15.59
2022-08-17T03:12:00.394Z,15.58
2022-08-17T03:13:00.551Z,15.57
2022-08-17T03:14:00.701Z,15.55
2022-08-17T03:15:00.847Z,15.54
2022-08-17T03:16:01.030Z,15.54
2022-08-17T03:17:01.167Z,15.53
2022-08-17T03:18:00.302Z,15.53
2022-08-17T03:19:00.452Z,15.53
2022-08-17T03:20:00.608Z,15.54
2022-08-17T03:21:00.775Z,15.53
2022-08-17T03:22:00.900Z,15.49
2022-08-17T03:23:02.733Z,15.48
2022-08-17T03:24:01.247Z,15.46
2022-08-17T03:25:00.407Z,15.44
2022-08-17T03:26:00.570Z,15.43
2022-08-17T03:27:00.702Z,15.4
2022-08-17T03:28:00.851Z,15.38
2022-08-17T03:29:01.005Z,15.36
2022-08-17T03:30:01.165Z,15.31
2022-08-17T03:31:00.327Z,15.3
2022-08-17T03:32:00.496Z,15.29
2022-08-17T03:33:00.618Z,15.3
2022-08-17T03:34:00.764Z,15.29
2022-08-17T03:35:00.918Z,15.28
2022-08-17T03:36:01.068Z,15.27
2022-08-17T03:37:01.252Z,15.25
2022-08-17T03:38:01.195Z,15.24
2022-08-17T03:39:00.523Z,15.24
2022-08-17T03:40:00.771Z,15.25
2022-08-17T03:41:00.833Z,15.26
2022-08-17T03:42:00.997Z,15.25
2022-08-17T03:43:01.157Z,15.24
2022-08-17T03:44:00.288Z,15.24
2022-08-17T03:45:00.422Z,15.22
2022-08-17T03:46:00.584Z,15.19
2022-08-17T03:47:00.738Z,15.17
2022-08-17T03:48:00.912Z,15.14
2022-08-17T03:49:01.027Z,15.12
2022-08-17T03:50:01.200Z,15.1
2022-08-17T03:51:00.345Z,15.07
2022-08-17T03:52:00.498Z,15.04
2022-08-17T03:53:00.666Z,15.03
2022-08-17T03:54:00.792Z,15.03
2022-08-17T03:55:00.948Z,15.03
2022-08-17T03:56:01.102Z,15.03
2022-08-17T03:57:01.268Z,15.04
2022-08-17T03:58:00.429Z,15.06
2022-08-17T03:59:00.556Z,15
2022-08-17T04:00:00.720Z,14.96
2022-08-17T04:01:00.936Z,14.93
2022-08-17T04:02:01.021Z,14.91
2022-08-17T04:03:01.202Z,14.89
2022-08-17T04:04:00.321Z,14.92
2022-08-17T04:05:00.471Z,14.93
2022-08-17T04:06:00.615Z,14.96
2022-08-17T04:07:00.767Z,14.96
2022-08-17T04:08:00.922Z,14.96
2022-08-17T04:09:01.096Z,14.95
2022-08-17T04:10:01.224Z,14.94
2022-08-17T04:11:00.365Z,14.95
2022-08-17T04:12:02.552Z,14.96
2022-08-17T04:13:00.661Z,14.98
2022-08-17T04:14:00.840Z,15.01
2022-08-17T04:15:00.973Z,15.02
2022-08-17T04:16:01.132Z,15.03
2022-08-17T04:17:00.274Z,15.01
2022-08-17T04:18:00.428Z,14.99
2022-08-17T04:19:00.695Z,14.97
2022-08-17T04:20:00.734Z,14.99
2022-08-17T04:21:00.888Z,15
2022-08-17T04:22:01.041Z,15.01
2022-08-17T04:23:01.196Z,15.02
2022-08-17T04:24:00.358Z,15.04
2022-08-17T04:25:00.503Z,15.04
2022-08-17T04:26:00.675Z,15.07
2022-08-17T04:27:00.807Z,15.09
2022-08-17T04:28:00.973Z,15.1
2022-08-17T04:29:01.145Z,15.07
2022-08-17T04:30:00.299Z,15.08
2022-08-17T04:31:00.433Z,15.09
2022-08-17T04:32:00.587Z,15.1
2022-08-17T04:33:05.887Z,15.11
2022-08-17T04:34:00.918Z,15.12
2022-08-17T04:35:01.054Z,15.15
2022-08-17T04:36:01.200Z,15.16
2022-08-17T04:37:00.349Z,15.16
2022-08-17T04:38:00.489Z,15.15
2022-08-17T04:39:00.666Z,15.16
2022-08-17T04:40:03.903Z,15.17
2022-08-17T04:41:00.943Z,15.19
2022-08-17T04:42:01.103Z,15.22
2022-08-17T04:43:01.252Z,15.23
2022-08-17T04:44:00.399Z,15.26
2022-08-17T04:45:00.585Z,15.27
2022-08-17T04:46:00.704Z,15.28
2022-08-17T04:47:00.874Z,15.3
2022-08-17T04:48:01.067Z,15.32
2022-08-17T04:49:01.177Z,15.33
2022-08-17T04:50:00.359Z,15.32
2022-08-17T04:51:00.476Z,15.34
2022-08-17T04:52:04.242Z,15.36
2022-08-17T04:53:01.208Z,15.38
2022-08-17T04:54:00.939Z,15.41
2022-08-17T04:55:01.110Z,15.43
2022-08-17T04:56:01.240Z,15.42
2022-08-17T04:57:00.389Z,15.4
2022-08-17T04:58:00.534Z,15.41
2022-08-17T04:59:00.701Z,15.42
2022-08-17T05:00:00.882Z,15.44
2022-08-17T05:01:01.082Z,15.45
2022-08-17T05:02:01.153Z,15.46
2022-08-17T05:03:00.303Z,15.47
2022-08-17T05:04:00.465Z,15.49
2022-08-17T05:05:00.647Z,15.53
2022-08-17T05:06:00.765Z,15.56
2022-08-17T05:07:00.899Z,15.58
2022-08-17T05:08:01.053Z,15.61
2022-08-17T05:09:01.198Z,15.65
2022-08-17T05:10:00.379Z,15.68
2022-08-17T05:11:00.532Z,15.69
2022-08-17T05:12:00.654Z,15.7
2022-08-17T05:13:00.799Z,15.71
2022-08-17T05:14:00.947Z,15.72
2022-08-17T05:15:01.096Z,15.71
2022-08-17T05:17:00.389Z,15.72
2022-08-17T05:18:00.515Z,15.72
2022-08-17T05:19:00.662Z,15.74
2022-08-17T05:20:00.813Z,15.75
2022-08-17T05:21:00.959Z,15.76
2022-08-17T05:22:01.134Z,15.78
2022-08-17T05:23:01.252Z,15.81
2022-08-17T05:24:00.397Z,15.83
2022-08-17T05:25:01.841Z,15.88
2022-08-17T05:26:00.703Z,15.92
2022-08-17T05:27:06.133Z,15.97
2022-08-17T05:28:01.034Z,16.01
2022-08-17T05:29:02.819Z,16.04
2022-08-17T05:30:00.329Z,16.08
2022-08-17T05:31:00.475Z,16.13
2022-08-17T05:32:00.722Z,16.18
2022-08-17T05:33:00.794Z,16.22
2022-08-17T05:34:00.944Z,16.26
2022-08-17T05:35:01.104Z,16.31
2022-08-17T05:36:01.254Z,16.35
2022-08-17T05:37:00.443Z,16.39
2022-08-17T05:38:00.558Z,16.43
2022-08-17T05:39:00.703Z,16.44
2022-08-17T05:40:00.927Z,16.47
2022-08-17T05:41:01.008Z,16.51
2022-08-17T05:42:01.177Z,16.57
2022-08-17T05:43:00.306Z,16.61
2022-08-17T05:44:00.453Z,16.66
2022-08-17T05:45:00.614Z,16.74
2022-08-17T05:46:00.762Z,16.79
2022-08-17T05:47:00.932Z,16.85
2022-08-17T05:48:01.061Z,16.9
2022-08-17T05:49:01.219Z,16.98
2022-08-17T05:50:00.360Z,17.03
2022-08-17T05:51:00.521Z,17.08
2022-08-17T05:52:00.694Z,17.13
2022-08-17T05:53:00.841Z,17.17
2022-08-17T05:54:00.992Z,17.19
2022-08-17T05:55:01.152Z,17.24
2022-08-17T05:56:00.298Z,17.3
2022-08-17T05:57:00.456Z,17.35
2022-08-17T05:58:00.619Z,17.36
2022-08-17T05:59:00.769Z,17.41
2022-08-17T06:00:00.944Z,17.44
2022-08-17T06:01:01.159Z,17.45
2022-08-17T06:02:01.229Z,17.46
2022-08-17T06:03:00.379Z,17.48
2022-08-17T06:04:00.532Z,17.51
2022-08-17T06:05:00.694Z,17.58
2022-08-17T06:06:00.845Z,17.67
2022-08-17T06:07:00.993Z,17.73
2022-08-17T06:08:01.151Z,17.81
2022-08-17T06:09:00.300Z,17.89
2022-08-17T06:10:00.475Z,17.96
2022-08-17T06:11:00.607Z,18.04
2022-08-17T06:12:00.754Z,18.1
2022-08-17T06:13:00.912Z,18.17
2022-08-17T06:14:01.059Z,18.23
2022-08-17T06:15:01.248Z,18.28
2022-08-17T06:16:00.357Z,18.3
2022-08-17T06:17:00.502Z,18.36
2022-08-17T06:18:00.670Z,18.41
2022-08-17T06:19:00.817Z,18.44
2022-08-17T06:20:00.998Z,18.48
2022-08-17T06:21:01.154Z,18.51
2022-08-17T06:22:00.279Z,18.53
2022-08-17T06:23:00.424Z,18.56
2022-08-17T06:24:00.575Z,18.59
2022-08-17T06:25:00.753Z,18.65
2022-08-17T06:26:00.874Z,18.69
2022-08-17T06:27:01.038Z,18.76
2022-08-17T06:28:01.192Z,18.84
2022-08-17T06:29:00.365Z,18.89
2022-08-17T06:30:00.511Z,18.96
2022-08-17T06:31:01.393Z,19.04
2022-08-17T06:32:00.807Z,19.12
2022-08-17T06:33:00.955Z,19.22
2022-08-17T06:34:01.102Z,19.29
2022-08-17T06:35:00.290Z,19.33
2022-08-17T06:36:00.448Z,19.36
2022-08-17T06:37:00.572Z,19.43
2022-08-17T06:38:00.725Z,19.51
2022-08-17T06:39:00.885Z,19.56
2022-08-17T06:40:01.107Z,19.61
2022-08-17T06:41:01.171Z,19.68
2022-08-17T06:42:00.312Z,19.71
2022-08-17T06:43:06.710Z,19.75
2022-08-17T06:44:00.627Z,19.76
2022-08-17T06:45:00.803Z,19.75
2022-08-17T06:46:00.945Z,19.73
2022-08-17T06:47:01.105Z,19.73
2022-08-17T06:48:01.242Z,19.73
2022-08-17T06:49:00.427Z,19.74
2022-08-17T06:50:00.547Z,19.76
2022-08-17T06:51:00.712Z,19.8
2022-08-17T06:52:00.860Z,19.83
2022-08-17T06:53:01.225Z,19.9
2022-08-17T06:54:01.200Z,19.91
2022-08-17T06:55:00.325Z,19.91
2022-08-17T06:56:00.483Z,19.92
2022-08-17T06:57:00.638Z,19.98
2022-08-17T06:58:00.786Z,20.04
2022-08-17T06:59:00.960Z,20.1
2022-08-17T07:00:01.085Z,20.14
2022-08-17T07:01:01.296Z,20.17
2022-08-17T07:02:00.455Z,20.2
2022-08-17T07:03:00.568Z,20.22
2022-08-17T07:04:05.005Z,20.26
2022-08-17T07:05:00.871Z,20.3
2022-08-17T07:06:01.023Z,20.32
2022-08-17T07:07:01.180Z,20.35
2022-08-17T07:08:00.334Z,20.41
2022-08-17T07:09:00.511Z,20.44
2022-08-17T07:10:00.633Z,20.48
2022-08-17T07:11:00.783Z,20.53
2022-08-17T07:12:00.929Z,20.61
2022-08-17T07:13:01.089Z,20.62
2022-08-17T07:14:01.266Z,20.65
2022-08-17T07:15:00.397Z,20.69
2022-08-17T07:16:00.540Z,20.71
2022-08-17T07:17:00.686Z,20.75
2022-08-17T07:18:01.224Z,20.8
2022-08-17T07:19:01.019Z,20.83
2022-08-17T07:20:01.142Z,20.85
2022-08-17T07:21:00.294Z,20.87
2022-08-17T07:22:00.445Z,20.9
2022-08-17T07:23:00.767Z,20.93
2022-08-17T07:24:00.779Z,20.94
2022-08-17T07:25:00.901Z,20.98
2022-08-17T07:26:01.053Z,21
2022-08-17T07:27:01.202Z,21.01
2022-08-17T07:28:00.349Z,21.03
2022-08-17T07:29:00.521Z,21.04
2022-08-17T07:30:00.654Z,21.06
2022-08-17T07:31:00.800Z,21.09
2022-08-17T07:32:00.965Z,21.13
2022-08-17T07:33:01.124Z,21.16
2022-08-17T07:34:01.285Z,21.2
2022-08-17T07:35:00.408Z,21.22
2022-08-17T07:36:00.554Z,21.25
2022-08-17T07:37:00.734Z,21.28
2022-08-17T07:38:00.858Z,21.31
2022-08-17T07:39:01.040Z,21.35
2022-08-17T07:40:15.118Z,21.38
2022-08-17T07:41:00.313Z,21.43
2022-08-17T07:42:00.471Z,21.57
2022-08-17T07:43:00.637Z,21.68
2022-08-17T07:44:00.837Z,21.83
2022-08-17T07:45:00.914Z,21.92
2022-08-17T07:46:01.066Z,21.99
2022-08-17T07:47:01.214Z,22.08
2022-08-17T07:48:00.354Z,22.12
2022-08-17T07:49:00.522Z,22.13
2022-08-17T07:50:00.690Z,22.13
2022-08-17T07:51:00.813Z,22.13
2022-08-17T07:52:48.247Z,22.13
2022-08-17T07:53:01.118Z,22.13
2022-08-17T07:54:13.447Z,22.17
2022-08-17T07:55:00.454Z,22.2
2022-08-17T07:56:00.597Z,22.24
2022-08-17T07:57:00.755Z,22.26
2022-08-17T07:58:00.888Z,22.28
2022-08-17T07:59:01.051Z,22.29
2022-08-17T08:00:01.435Z,22.33
2022-08-17T08:01:00.340Z,22.38
2022-08-17T08:02:00.565Z,22.44
2022-08-17T08:03:00.647Z,22.6
2022-08-17T08:04:00.797Z,22.67
2022-08-17T08:05:02.020Z,22.7
2022-08-17T08:06:01.114Z,22.78
2022-08-17T08:07:00.268Z,22.85
2022-08-17T08:08:00.421Z,22.93
2022-08-17T08:09:00.577Z,22.96
2022-08-17T08:10:00.759Z,22.98
2022-08-17T08:11:00.875Z,22.98
2022-08-17T08:12:01.036Z,22.99
2022-08-17T08:13:01.191Z,23.01
2022-08-17T08:14:00.332Z,23.03
2022-08-17T08:15:00.507Z,23.11
2022-08-17T08:16:00.640Z,23.21
2022-08-17T08:17:00.793Z,23.35
2022-08-17T08:18:00.945Z,23.45
2022-08-17T08:19:01.084Z,23.55
2022-08-17T08:20:01.275Z,23.6
2022-08-17T08:21:00.383Z,23.64
2022-08-17T08:22:00.541Z,23.67
2022-08-17T08:23:00.679Z,23.69
2022-08-17T08:24:00.834Z,23.73
2022-08-17T08:25:00.993Z,23.81
2022-08-17T08:26:01.127Z,23.9
2022-08-17T08:27:00.283Z,23.97
2022-08-17T08:28:00.468Z,24.03
2022-08-17T08:29:00.596Z,24.12
2022-08-17T08:30:00.742Z,24.2
2022-08-17T08:31:00.899Z,24.33
2022-08-17T08:32:01.043Z,24.39
2022-08-17T08:33:01.224Z,24.42
2022-08-17T08:34:00.343Z,24.44
2022-08-17T08:35:02.802Z,24.48
2022-08-17T08:36:00.655Z,24.61
2022-08-17T08:37:17.125Z,24.83
2022-08-17T08:38:00.971Z,25
2022-08-17T08:39:01.106Z,25.13
2022-08-17T08:40:01.317Z,25.2
2022-08-17T08:41:00.408Z,25.23
2022-08-17T08:42:00.565Z,25.3
2022-08-17T08:43:00.724Z,25.46
2022-08-17T08:44:00.880Z,25.54
2022-08-17T08:45:04.455Z,25.53
2022-08-17T08:46:01.166Z,25.51
2022-08-17T08:47:00.304Z,25.58
2022-08-17T08:48:05.553Z,25.71
2022-08-17T08:49:04.930Z,25.67
2022-08-17T08:50:04.687Z,25.62
2022-08-17T08:51:00.927Z,25.66
2022-08-17T08:52:01.068Z,25.74
2022-08-17T08:53:01.213Z,25.89
2022-08-17T08:54:00.376Z,25.87
2022-08-17T08:55:00.521Z,25.92
2022-08-17T08:56:00.716Z,26.03
2022-08-17T08:57:23.240Z,26.12
2022-08-17T08:58:00.998Z,26.23
2022-08-17T08:59:01.135Z,26.38
2022-08-17T09:00:00.301Z,26.46
2022-08-17T09:01:00.498Z,26.52
2022-08-17T09:02:00.601Z,26.57
2022-08-17T09:03:00.771Z,26.56
2022-08-17T09:04:18.354Z,26.58
2022-08-17T09:05:14.955Z,26.65
2022-08-17T09:06:01.193Z,26.69
2022-08-17T09:07:00.347Z,26.76
2022-08-17T09:08:00.508Z,26.87
2022-08-17T09:09:00.657Z,26.94
2022-08-17T09:10:00.794Z,27
2022-08-17T09:11:00.933Z,27.05
2022-08-17T09:12:03.489Z,27.1
2022-08-17T09:13:09.347Z,27.16
2022-08-17T09:14:00.393Z,27.17
2022-08-17T09:15:00.536Z,27.21
2022-08-17T09:16:00.680Z,27.23
2022-08-17T09:17:00.831Z,27.27
2022-08-17T09:18:39.595Z,27.29
2022-08-17T09:19:04.292Z,27.34
2022-08-17T09:20:00.276Z,27.37
2022-08-17T09:21:00.434Z,27.4
2022-08-17T09:22:00.588Z,27.47
2022-08-17T09:23:00.746Z,27.51
2022-08-17T09:24:00.913Z,27.52
2022-08-17T09:25:01.055Z,27.52
2022-08-17T09:26:01.194Z,27.54
2022-08-17T09:27:00.346Z,27.54
2022-08-17T09:28:00.907Z,27.54
2022-08-17T09:29:00.664Z,27.59
2022-08-17T09:30:00.844Z,27.66
2022-08-17T09:31:00.955Z,27.71
2022-08-17T09:32:01.114Z,27.75
2022-08-17T09:33:00.263Z,27.78
2022-08-17T09:34:00.423Z,27.78
2022-08-17T09:35:00.587Z,27.78
2022-08-17T09:36:00.762Z,27.78
2022-08-17T09:37:00.873Z,27.81
2022-08-17T09:38:01.036Z,27.85
2022-08-17T09:39:01.171Z,27.8
2022-08-17T09:40:00.504Z,27.8
2022-08-17T09:41:00.487Z,27.7
2022-08-17T09:42:00.622Z,27.56
2022-08-17T09:43:00.772Z,27.43
2022-08-17T09:44:00.918Z,27.34
2022-08-17T09:45:01.068Z,27.27
2022-08-17T09:46:01.240Z,27.22
2022-08-17T09:47:00.368Z,27.23
2022-08-17T09:48:00.529Z,27.34
2022-08-17T09:49:00.672Z,27.44
2022-08-17T09:50:00.833Z,27.51
2022-08-17T09:51:05.983Z,27.44
2022-08-17T09:52:01.135Z,27.5
2022-08-17T09:53:00.286Z,27.66
2022-08-17T09:54:15.104Z,27.75
2022-08-17T09:55:00.633Z,27.83
2022-08-17T09:56:00.781Z,27.87
2022-08-17T09:57:28.038Z,27.93
2022-08-17T09:58:01.045Z,27.95
2022-08-17T09:59:01.224Z,27.9
2022-08-17T10:00:00.351Z,27.94
2022-08-17T10:01:00.560Z,27.99
2022-08-17T10:02:00.657Z,28.05
2022-08-17T10:03:00.812Z,28.16
2022-08-17T10:04:00.979Z,28.21
2022-08-17T10:05:01.099Z,28.24
2022-08-17T10:06:01.252Z,28.31
2022-08-17T10:07:00.407Z,28.35
2022-08-17T10:08:00.582Z,28.25
2022-08-17T10:09:00.737Z,28.1
2022-08-17T10:10:00.870Z,27.99
2022-08-17T10:11:01.027Z,27.9
2022-08-17T10:12:01.169Z,27.85
2022-08-17T10:13:00.318Z,27.85
2022-08-17T10:14:00.509Z,27.97
2022-08-17T10:15:08.041Z,28.09
2022-08-17T10:16:00.778Z,28.06
2022-08-17T10:17:00.939Z,27.96
2022-08-17T10:18:01.086Z,27.95
2022-08-17T10:19:01.259Z,28.02
2022-08-17T10:20:00.394Z,27.98
2022-08-17T10:21:00.544Z,27.9
2022-08-17T10:22:14.732Z,27.84
2022-08-17T10:23:00.848Z,27.84
2022-08-17T10:24:01.021Z,27.81
2022-08-17T10:25:22.235Z,27.84
2022-08-17T10:26:00.309Z,27.83
2022-08-17T10:27:00.458Z,27.9
2022-08-17T10:28:00.613Z,28.02
2022-08-17T10:29:00.788Z,28.04
2022-08-17T10:30:00.979Z,27.98
2022-08-17T10:31:30.992Z,27.9
2022-08-17T10:32:01.229Z,27.83
2022-08-17T10:33:00.403Z,27.8
2022-08-17T10:34:00.577Z,27.83
2022-08-17T10:35:00.690Z,27.9
2022-08-17T10:36:00.838Z,27.91
2022-08-17T10:37:01.003Z,27.87
2022-08-17T10:38:01.147Z,27.81
2022-08-17T10:39:00.317Z,27.78
2022-08-17T10:40:00.522Z,27.83
2022-08-17T10:41:00.609Z,27.84
2022-08-17T10:42:00.760Z,27.79
2022-08-17T10:43:00.906Z,27.69
2022-08-17T10:44:38.828Z,27.63
2022-08-17T10:45:01.213Z,27.6
2022-08-17T10:46:10.531Z,27.55
2022-08-17T10:47:00.515Z,27.54
2022-08-17T10:48:05.301Z,27.5
2022-08-17T10:49:00.832Z,27.45
2022-08-17T10:50:00.985Z,27.42
2022-08-17T10:51:01.121Z,27.41
2022-08-17T10:53:00.368Z,27.4
2022-08-17T10:54:00.548Z,27.4
2022-08-17T10:55:00.737Z,27.43
2022-08-17T10:56:00.858Z,27.45
2022-08-17T10:57:01.007Z,27.5
2022-08-17T10:58:01.164Z,27.57
2022-08-17T10:59:00.312Z,27.59
2022-08-17T11:00:00.493Z,27.57
2022-08-17T11:01:00.648Z,27.57
2022-08-17T11:02:00.771Z,27.56
2022-08-17T11:03:00.916Z,27.57
2022-08-17T11:04:01.075Z,27.55
2022-08-17T11:05:01.257Z,27.58
2022-08-17T11:06:00.379Z,27.61
2022-08-17T11:07:00.540Z,27.63
2022-08-17T11:08:00.679Z,27.61
2022-08-17T11:09:00.841Z,27.63
2022-08-17T11:10:01.005Z,27.64
2022-08-17T11:11:01.166Z,27.66
2022-08-17T11:12:00.292Z,27.8
2022-08-17T11:13:00.449Z,27.99
2022-08-17T11:14:00.589Z,28.09
2022-08-17T11:15:00.753Z,28.13
2022-08-17T11:16:04.852Z,28.05
2022-08-17T11:17:01.067Z,27.93
2022-08-17T11:18:01.203Z,27.85
2022-08-17T11:19:00.375Z,27.8
2022-08-17T11:20:00.504Z,27.74
2022-08-17T11:21:00.678Z,27.76
2022-08-17T11:22:00.814Z,27.76
2022-08-17T11:23:00.960Z,27.79
2022-08-17T11:24:01.126Z,27.81
2022-08-17T11:26:00.368Z,27.89
2022-08-17T11:27:00.529Z,27.9
2022-08-17T11:28:00.707Z,27.85
2022-08-17T11:29:00.899Z,27.81
2022-08-17T11:30:02.579Z,27.81
2022-08-17T11:31:01.166Z,27.85
2022-08-17T11:32:00.325Z,27.93
2022-08-17T11:33:00.473Z,27.95
2022-08-17T11:34:00.663Z,27.9
2022-08-17T11:35:00.790Z,27.89
2022-08-17T11:36:00.927Z,27.93
2022-08-17T11:37:01.078Z,27.96
2022-08-17T11:38:01.229Z,27.99
2022-08-17T11:39:00.391Z,28.06
2022-08-17T11:40:00.656Z,28.08
2022-08-17T11:41:00.677Z,28.09
2022-08-17T11:42:00.834Z,28.08
2022-08-17T11:43:00.978Z,28.08
2022-08-17T11:44:01.901Z,28.13
2022-08-17T11:45:00.303Z,28.21
2022-08-17T11:46:00.430Z,28.26
2022-08-17T11:47:00.583Z,28.31
2022-08-17T11:48:26.638Z,28.34
2022-08-17T11:49:00.883Z,28.32
2022-08-17T11:50:01.043Z,28.27
2022-08-17T11:51:01.176Z,28.26
2022-08-17T11:52:00.319Z,28.29
2022-08-17T11:53:00.471Z,28.33
2022-08-17T11:54:30.659Z,28.4
2022-08-17T11:55:17.972Z,28.43
2022-08-17T11:56:00.911Z,28.44
2022-08-17T11:57:01.096Z,28.46
2022-08-17T11:58:01.209Z,28.42
2022-08-17T11:59:00.366Z,28.45
2022-08-17T12:00:00.528Z,28.5
2022-08-17T12:01:00.683Z,28.53
2022-08-17T12:02:00.855Z,28.57
2022-08-17T12:03:00.983Z,28.6
2022-08-17T12:04:01.157Z,28.67
2022-08-17T12:05:00.284Z,28.72
2022-08-17T12:06:00.437Z,28.75
2022-08-17T12:07:00.598Z,28.78
2022-08-17T12:08:00.761Z,28.83
2022-08-17T12:09:00.916Z,28.84
2022-08-17T12:10:01.047Z,28.88
2022-08-17T12:11:01.216Z,28.9
2022-08-17T12:12:12.554Z,28.88
2022-08-17T12:13:00.501Z,28.91
2022-08-17T12:14:00.663Z,29.04
2022-08-17T12:15:11.132Z,29.16
2022-08-17T12:16:00.936Z,29.29
2022-08-17T12:17:01.123Z,29.37
2022-08-17T12:18:01.255Z,29.53
2022-08-17T12:19:00.390Z,29.73
2022-08-17T12:20:00.546Z,29.86
2022-08-17T12:21:00.699Z,29.95
2022-08-17T12:22:00.861Z,29.98
2022-08-17T12:23:01.070Z,30.01
2022-08-17T12:24:01.143Z,30
2022-08-17T12:25:00.298Z,30.02
2022-08-17T12:26:00.446Z,30.04
2022-08-17T12:27:00.622Z,30.06
2022-08-17T12:28:06.719Z,30.07
2022-08-17T12:29:01.134Z,30.08
2022-08-17T12:30:01.081Z,30.04
2022-08-17T12:31:01.232Z,29.94
2022-08-17T12:32:00.386Z,29.9
2022-08-17T12:33:00.538Z,29.91
2022-08-17T12:34:00.664Z,29.94
2022-08-17T12:35:00.814Z,29.98
2022-08-17T12:36:00.971Z,30
2022-08-17T12:37:01.126Z,29.98
2022-08-17T12:38:00.309Z,30
2022-08-17T12:39:14.182Z,30.04
2022-08-17T12:40:00.624Z,30.06
2022-08-17T12:41:00.725Z,30.06
2022-08-17T12:42:02.555Z,30.09
2022-08-17T12:43:01.050Z,30.11
2022-08-17T12:44:01.170Z,30.11
2022-08-17T12:45:00.324Z,30.11
2022-08-17T12:46:00.474Z,30.17
2022-08-17T12:47:00.631Z,30.27
2022-08-17T12:48:00.800Z,30.33
2022-08-17T12:49:00.944Z,30.41
2022-08-17T12:50:01.089Z,30.53
2022-08-17T12:51:01.240Z,30.68
2022-08-17T12:52:00.383Z,30.79
2022-08-17T12:53:02.575Z,30.91
2022-08-17T12:54:00.715Z,30.96
2022-08-17T12:55:00.840Z,30.9
2022-08-17T12:56:00.991Z,30.8
2022-08-17T12:57:01.133Z,30.79
2022-08-17T12:58:00.917Z,30.79
2022-08-17T12:59:00.459Z,30.8